createdAt,value
2023-05-05T00:00:07.011Z,0.00
2023-05-05T00:01:06.879Z,0.00
2023-05-05T00:02:06.919Z,0.00
2023-05-05T00:03:06.939Z,0.00
2023-05-05T00:04:07.008Z,0.00
2023-05-05T00:05:07.022Z,0.00
2023-05-05T00:06:07.101Z,0.00
2023-05-05T00:07:07.154Z,0.00
2023-05-05T00:08:07.155Z,0.00
2023-05-05T00:09:07.244Z,0.00
2023-05-05T00:10:07.476Z,0.00
2023-05-05T00:11:07.300Z,0.00
2023-05-05T00:12:07.319Z,0.00
2023-05-05T00:13:07.434Z,0.00
2023-05-05T00:14:07.344Z,0.00
2023-05-05T00:15:07.408Z,0.00
2023-05-05T00:16:07.451Z,0.00
2023-05-05T00:17:07.487Z,0.00
2023-05-05T00:18:07.637Z,0.00
2023-05-05T00:19:07.565Z,0.00
2023-05-05T00:20:07.951Z,0.00
2023-05-05T00:21:07.621Z,0.00
2023-05-05T00:22:07.615Z,0.00
2023-05-05T00:23:07.659Z,0.00
2023-05-05T00:24:07.677Z,0.00
2023-05-05T00:25:07.703Z,0.00
2023-05-05T00:26:07.728Z,0.00
2023-05-05T00:27:07.763Z,0.00
2023-05-05T00:28:07.748Z,0.00
2023-05-05T00:29:07.809Z,0.00
2023-05-05T00:30:08.174Z,0.00
2023-05-05T00:31:07.873Z,0.00
2023-05-05T00:32:07.863Z,0.00
2023-05-05T00:33:07.868Z,0.00
2023-05-05T00:34:07.945Z,0.00
2023-05-05T00:35:07.998Z,0.00
2023-05-05T00:36:08.030Z,0.00
2023-05-05T00:37:08.054Z,0.00
2023-05-05T00:38:08.062Z,0.00
2023-05-05T00:39:08.095Z,0.00
2023-05-05T00:40:08.337Z,0.00
2023-05-05T00:41:08.224Z,0.00
2023-05-05T00:42:08.195Z,0.00
2023-05-05T00:43:08.255Z,0.00
2023-05-05T00:44:08.305Z,0.00
2023-05-05T00:45:08.299Z,0.00
2023-05-05T00:46:08.385Z,0.00
2023-05-05T00:47:08.394Z,0.00
2023-05-05T00:48:08.441Z,0.00
2023-05-05T00:49:08.531Z,0.00
2023-05-05T00:50:08.722Z,0.00
2023-05-05T00:51:08.574Z,0.00
2023-05-05T00:52:08.629Z,0.00
2023-05-05T00:53:08.662Z,0.00
2023-05-05T00:54:08.682Z,0.00
2023-05-05T00:55:08.679Z,0.00
2023-05-05T00:56:08.750Z,0.00
2023-05-05T00:57:08.759Z,0.00
2023-05-05T00:58:08.840Z,0.00
2023-05-05T00:59:08.863Z,0.00
2023-05-05T01:00:09.093Z,0.00
2023-05-05T01:01:09.026Z,0.00
2023-05-05T01:02:08.975Z,0.00
2023-05-05T01:03:09.207Z,0.00
2023-05-05T01:04:09.046Z,0.00
2023-05-05T01:05:09.098Z,0.00
2023-05-05T01:06:09.113Z,0.00
2023-05-05T01:07:09.122Z,0.00
2023-05-05T01:08:09.155Z,0.00
2023-05-05T01:09:09.168Z,0.00
2023-05-05T01:10:19.545Z,0.00
2023-05-05T01:11:09.217Z,0.00
2023-05-05T01:12:09.245Z,0.00
2023-05-05T01:13:09.406Z,0.00
2023-05-05T01:14:09.300Z,0.00
2023-05-05T01:15:09.325Z,0.00
2023-05-05T01:16:09.333Z,0.00
2023-05-05T01:17:09.354Z,0.00
2023-05-05T01:18:09.374Z,0.00
2023-05-05T01:19:09.386Z,0.00
2023-05-05T01:20:09.593Z,0.00
2023-05-05T01:21:09.441Z,0.00
2023-05-05T01:22:09.436Z,0.00
2023-05-05T01:23:09.480Z,0.00
2023-05-05T01:24:09.522Z,0.00
2023-05-05T01:25:09.520Z,0.00
2023-05-05T01:29:01.572Z,0.00
2023-05-05T01:38:37.401Z,0.00
2023-05-05T01:52:31.259Z,0.00
2023-05-05T01:53:31.357Z,0.00
2023-05-05T01:54:31.290Z,0.00
2023-05-05T01:55:31.390Z,0.00
2023-05-05T01:56:31.382Z,0.00
2023-05-05T01:57:31.451Z,0.00
2023-05-05T01:58:31.433Z,0.00
2023-05-05T01:59:31.448Z,0.00
2023-05-05T02:00:31.503Z,0.00
2023-05-05T02:01:31.589Z,0.00
2023-05-05T02:02:31.655Z,0.00
2023-05-05T02:03:31.639Z,0.00
2023-05-05T02:04:31.612Z,0.00
2023-05-05T02:05:31.639Z,0.00
2023-05-05T02:06:31.646Z,0.00
2023-05-05T02:07:31.667Z,0.00
2023-05-05T02:08:31.697Z,0.00
2023-05-05T02:09:31.754Z,0.00
2023-05-05T02:10:31.794Z,0.00
2023-05-05T02:11:31.807Z,0.00
2023-05-05T02:12:31.892Z,0.00
2023-05-05T02:13:31.920Z,0.00
2023-05-05T02:14:31.918Z,0.00
2023-05-05T02:15:31.976Z,0.00
2023-05-05T02:16:31.982Z,0.00
2023-05-05T02:17:32.087Z,0.00
2023-05-05T02:18:32.076Z,0.00
2023-05-05T02:19:32.090Z,0.00
2023-05-05T02:20:32.108Z,0.00
2023-05-05T02:22:58.098Z,0.00
2023-05-05T02:23:58.187Z,0.00
2023-05-05T02:24:58.204Z,0.00
2023-05-05T02:25:58.264Z,0.00
2023-05-05T02:26:58.296Z,0.00
2023-05-05T02:27:58.330Z,0.00
2023-05-05T02:28:58.311Z,0.00
2023-05-05T02:29:58.367Z,0.00
2023-05-05T02:30:58.396Z,0.00
2023-05-05T02:31:58.403Z,0.00
2023-05-05T02:32:58.436Z,0.00
2023-05-05T02:33:58.451Z,0.00
2023-05-05T02:34:58.461Z,0.00
2023-05-05T02:35:58.463Z,0.00
2023-05-05T02:36:58.507Z,0.00
2023-05-05T02:37:58.520Z,0.00
2023-05-05T02:38:58.619Z,0.00
2023-05-05T02:39:58.679Z,0.00
2023-05-05T02:40:58.674Z,0.00
2023-05-05T02:41:58.711Z,0.00
2023-05-05T02:42:58.767Z,0.00
2023-05-05T02:43:58.739Z,0.00
2023-05-05T02:44:58.700Z,0.00
2023-05-05T02:45:58.750Z,0.00
2023-05-05T02:46:58.767Z,0.00
2023-05-05T02:47:58.829Z,0.00
2023-05-05T02:48:58.789Z,0.00
2023-05-05T02:49:58.822Z,0.00
2023-05-05T02:50:58.840Z,0.00
2023-05-05T02:51:58.853Z,0.00
2023-05-05T02:52:58.867Z,0.00
2023-05-05T02:53:58.868Z,0.00
2023-05-05T02:54:58.927Z,0.00
2023-05-05T02:55:58.954Z,0.00
2023-05-05T02:56:58.966Z,0.00
2023-05-05T02:57:58.946Z,0.00
2023-05-05T02:58:58.986Z,0.00
2023-05-05T02:59:58.996Z,0.00
2023-05-05T03:00:59.038Z,0.00
2023-05-05T03:01:59.146Z,0.00
2023-05-05T03:02:59.156Z,0.00
2023-05-05T03:03:59.116Z,0.00
2023-05-05T03:04:59.057Z,0.00
2023-05-05T03:05:59.106Z,0.00
2023-05-05T03:06:59.115Z,0.00
2023-05-05T03:07:59.194Z,0.00
2023-05-05T03:08:59.249Z,0.00
2023-05-05T03:09:59.280Z,0.00
2023-05-05T03:10:59.296Z,0.00
2023-05-05T03:11:59.319Z,0.00
2023-05-05T03:12:59.370Z,0.00
2023-05-05T03:13:59.347Z,0.00
2023-05-05T03:14:59.375Z,0.00
2023-05-05T03:15:59.448Z,0.00
2023-05-05T03:16:59.430Z,0.00
2023-05-05T03:17:59.500Z,0.00
2023-05-05T03:18:59.456Z,0.00
2023-05-05T03:20:00.525Z,0.00
2023-05-05T03:20:59.451Z,0.00
2023-05-05T03:21:59.537Z,0.00
2023-05-05T03:22:59.599Z,0.00
2023-05-05T03:23:59.586Z,0.00
2023-05-05T03:24:59.600Z,0.00
2023-05-05T03:25:59.656Z,0.00
2023-05-05T03:26:59.658Z,0.00
2023-05-05T03:27:59.730Z,0.00
2023-05-05T03:28:59.686Z,0.00
2023-05-05T03:29:59.730Z,0.00
2023-05-05T03:30:59.782Z,0.00
2023-05-05T03:31:59.867Z,0.00
2023-05-05T03:32:59.889Z,0.00
2023-05-05T03:33:59.895Z,0.00
2023-05-05T03:34:59.931Z,0.00
2023-05-05T03:35:59.972Z,0.00
2023-05-05T03:37:00.032Z,0.00
2023-05-05T03:38:00.037Z,0.00
2023-05-05T03:39:00.059Z,0.00
2023-05-05T03:40:00.126Z,0.00
2023-05-05T03:41:00.132Z,0.00
2023-05-05T03:42:00.160Z,5.62
2023-05-05T03:43:00.156Z,5.62
2023-05-05T03:44:00.192Z,5.62
2023-05-05T03:45:00.195Z,5.62
2023-05-05T03:46:00.185Z,5.62
2023-05-05T03:47:00.182Z,5.62
2023-05-05T03:48:00.263Z,5.62
2023-05-05T03:49:02.837Z,5.62
2023-05-05T03:50:00.365Z,5.62
2023-05-05T03:52:31.886Z,5.62
2023-05-05T03:53:31.524Z,5.62
2023-05-05T03:54:31.548Z,5.62
2023-05-05T03:55:31.772Z,5.62
2023-05-05T03:56:31.681Z,5.62
2023-05-05T03:57:31.694Z,11.25
2023-05-05T03:58:31.755Z,11.25
2023-05-05T03:59:32.699Z,11.25
2023-05-05T04:00:31.794Z,11.25
2023-05-05T04:01:31.846Z,11.25
2023-05-05T04:02:31.912Z,11.25
2023-05-05T04:03:31.982Z,16.88
2023-05-05T04:04:32.045Z,16.88
2023-05-05T04:05:31.964Z,16.88
2023-05-05T04:06:31.997Z,16.88
2023-05-05T04:07:31.958Z,22.50
2023-05-05T04:08:32.030Z,22.50
2023-05-05T04:09:32.065Z,22.50
2023-05-05T04:10:32.175Z,22.50
2023-05-05T04:11:32.203Z,28.12
2023-05-05T04:12:32.219Z,28.12
2023-05-05T04:13:32.184Z,28.12
2023-05-05T04:14:32.281Z,28.12
2023-05-05T04:15:32.303Z,28.12
2023-05-05T04:16:32.296Z,28.12
2023-05-05T04:17:32.328Z,28.12
2023-05-05T04:18:32.298Z,28.12
2023-05-05T04:19:32.287Z,28.12
2023-05-05T04:20:32.375Z,33.75
2023-05-05T04:21:32.342Z,33.75
2023-05-05T04:22:32.415Z,33.75
2023-05-05T04:23:32.380Z,33.75
2023-05-05T04:24:32.474Z,39.38
2023-05-05T04:25:32.580Z,39.38
2023-05-05T04:26:32.612Z,39.38
2023-05-05T04:27:32.644Z,39.38
2023-05-05T04:28:35.258Z,45.00
2023-05-05T04:29:34.447Z,45.00
2023-05-05T04:30:42.225Z,45.00
2023-05-05T04:31:32.744Z,45.00
2023-05-05T04:32:32.783Z,50.62
2023-05-05T04:33:32.733Z,50.62
2023-05-05T04:34:32.752Z,56.25
2023-05-05T04:35:32.811Z,56.25
2023-05-05T04:36:32.834Z,61.88
2023-05-05T04:37:32.883Z,61.88
2023-05-05T04:38:33.137Z,67.50
2023-05-05T04:39:33.005Z,73.12
2023-05-05T04:40:33.069Z,73.12
2023-05-05T04:41:33.063Z,78.75
2023-05-05T04:42:33.080Z,84.38
2023-05-05T04:43:33.105Z,90.00
2023-05-05T04:44:33.124Z,95.62
2023-05-05T04:45:33.160Z,101.25
2023-05-05T04:46:33.235Z,106.88
2023-05-05T04:47:33.221Z,106.88
2023-05-05T04:48:33.265Z,112.50
2023-05-05T04:49:33.293Z,112.50
2023-05-05T04:50:33.357Z,118.12
2023-05-05T04:51:33.386Z,123.75
2023-05-05T04:52:33.433Z,123.75
2023-05-05T04:53:33.474Z,129.38
2023-05-05T04:54:33.445Z,140.62
2023-05-05T04:55:33.488Z,146.25
2023-05-05T04:56:33.606Z,151.88
2023-05-05T04:57:33.639Z,163.12
2023-05-05T04:58:33.665Z,202.50
2023-05-05T04:59:33.652Z,315.00
2023-05-05T05:00:33.656Z,225.00
2023-05-05T05:01:35.182Z,213.75
2023-05-05T05:02:33.926Z,337.50
2023-05-05T05:03:33.925Z,241.88
2023-05-05T05:04:33.860Z,247.50
2023-05-05T05:05:33.906Z,253.12
2023-05-05T05:06:33.827Z,264.38
2023-05-05T05:07:33.897Z,275.62
2023-05-05T05:08:33.944Z,292.50
2023-05-05T05:09:33.986Z,315.00
2023-05-05T05:10:33.997Z,438.75
2023-05-05T05:11:33.966Z,866.25
2023-05-05T05:12:34.051Z,1203.75
2023-05-05T05:13:34.005Z,562.50
2023-05-05T05:14:34.065Z,303.75
2023-05-05T05:15:34.098Z,292.50
2023-05-05T05:16:34.189Z,292.50
2023-05-05T05:17:34.139Z,320.62
2023-05-05T05:18:34.156Z,376.88
2023-05-05T05:19:34.221Z,967.50
2023-05-05T05:22:00.240Z,371.25
2023-05-05T05:23:00.301Z,326.25
2023-05-05T05:24:00.323Z,354.38
2023-05-05T05:25:00.401Z,376.88
2023-05-05T05:26:00.430Z,534.38
2023-05-05T05:27:00.471Z,691.88
2023-05-05T05:28:09.604Z,450.00
2023-05-05T05:29:00.489Z,427.50
2023-05-05T05:30:00.473Z,410.62
2023-05-05T05:31:00.559Z,410.62
2023-05-05T05:32:00.604Z,416.25
2023-05-05T05:33:00.607Z,427.50
2023-05-05T05:34:00.610Z,990.00
2023-05-05T05:35:00.677Z,444.38
2023-05-05T05:36:00.636Z,444.38
2023-05-05T05:37:00.801Z,376.88
2023-05-05T05:38:00.728Z,388.12
2023-05-05T05:39:00.728Z,821.25
2023-05-05T05:40:00.793Z,798.75
2023-05-05T05:41:00.778Z,472.50
2023-05-05T05:42:00.840Z,253.12
2023-05-05T05:43:00.910Z,225.00
2023-05-05T05:44:00.917Z,202.50
2023-05-05T05:45:00.930Z,185.62
2023-05-05T05:46:01.019Z,174.38
2023-05-05T05:47:00.990Z,163.12
2023-05-05T05:48:00.999Z,157.50
2023-05-05T05:50:40.026Z,73.12
2023-05-05T05:51:33.645Z,140.62
2023-05-05T05:52:33.681Z,129.38
2023-05-05T05:53:33.581Z,118.12
2023-05-05T05:54:33.851Z,106.88
2023-05-05T05:55:33.896Z,101.25
2023-05-05T05:56:33.739Z,95.62
2023-05-05T05:57:33.702Z,90.00
2023-05-05T05:58:33.755Z,90.00
2023-05-05T05:59:33.933Z,84.38
2023-05-05T06:00:33.734Z,90.00
2023-05-05T06:01:33.944Z,90.00
2023-05-05T06:02:33.917Z,95.62
2023-05-05T06:03:33.996Z,106.88
2023-05-05T06:04:33.939Z,112.50
2023-05-05T06:05:33.968Z,123.75
2023-05-05T06:06:33.998Z,129.38
2023-05-05T06:07:33.987Z,135.00
2023-05-05T06:08:34.128Z,129.38
2023-05-05T06:09:34.248Z,123.75
2023-05-05T06:10:34.533Z,123.75
2023-05-05T06:11:34.156Z,118.12
2023-05-05T06:12:34.228Z,123.75
2023-05-05T06:13:34.272Z,123.75
2023-05-05T06:14:34.403Z,129.38
2023-05-05T06:15:34.454Z,140.62
2023-05-05T06:16:34.514Z,151.88
2023-05-05T06:17:34.519Z,168.75
2023-05-05T06:18:34.494Z,191.25
2023-05-05T06:19:34.574Z,225.00
2023-05-05T06:20:34.586Z,247.50
2023-05-05T06:21:34.581Z,292.50
2023-05-05T06:22:34.594Z,337.50
2023-05-05T06:23:34.768Z,399.38
2023-05-05T06:24:34.604Z,466.88
2023-05-05T06:25:34.617Z,635.62
2023-05-05T06:26:34.602Z,1040.62
2023-05-05T06:27:34.697Z,1878.75
2023-05-05T06:28:34.658Z,2075.62
2023-05-05T06:29:34.741Z,1636.88
2023-05-05T06:30:34.740Z,1569.38
2023-05-05T06:31:34.772Z,978.75
2023-05-05T06:32:34.809Z,950.62
2023-05-05T06:33:34.756Z,1119.38
2023-05-05T06:34:34.755Z,1434.38
2023-05-05T06:35:34.817Z,753.75
2023-05-05T06:36:34.926Z,1451.25
2023-05-05T06:37:34.919Z,1276.88
2023-05-05T06:38:34.916Z,810.00
2023-05-05T06:39:34.936Z,1074.38
2023-05-05T06:40:34.981Z,1203.75
2023-05-05T06:41:35.036Z,1518.75
2023-05-05T06:42:35.019Z,1608.75
2023-05-05T06:43:35.004Z,1383.75
2023-05-05T06:44:35.010Z,630.00
2023-05-05T06:45:35.059Z,489.38
2023-05-05T06:46:35.126Z,405.00
2023-05-05T06:47:35.171Z,337.50
2023-05-05T06:48:35.217Z,281.25
2023-05-05T06:49:35.259Z,230.62
2023-05-05T06:50:36.156Z,202.50
2023-05-05T06:51:35.285Z,174.38
2023-05-05T06:52:35.307Z,157.50
2023-05-05T06:53:35.377Z,146.25
2023-05-05T06:54:35.425Z,135.00
2023-05-05T06:55:35.448Z,129.38
2023-05-05T06:56:35.492Z,123.75
2023-05-05T06:57:35.532Z,118.12
2023-05-05T06:58:35.585Z,112.50
2023-05-05T06:59:35.631Z,106.88
2023-05-05T07:00:35.660Z,95.62
2023-05-05T07:01:35.694Z,101.25
2023-05-05T07:02:35.808Z,90.00
2023-05-05T07:03:35.836Z,84.38
2023-05-05T07:04:35.792Z,73.12
2023-05-05T07:05:35.838Z,50.62
2023-05-05T07:06:35.932Z,33.75
2023-05-05T07:07:35.888Z,28.12
2023-05-05T07:08:35.907Z,22.50
2023-05-05T07:09:35.947Z,22.50
2023-05-05T07:10:35.994Z,16.88
2023-05-05T07:11:36.081Z,22.50
2023-05-05T07:12:36.172Z,22.50
2023-05-05T07:13:36.089Z,22.50
2023-05-05T07:14:36.139Z,28.12
2023-05-05T07:15:36.143Z,33.75
2023-05-05T07:16:36.226Z,33.75
2023-05-05T07:17:36.214Z,39.38
2023-05-05T07:18:36.190Z,45.00
2023-05-05T07:19:36.230Z,45.00
2023-05-05T07:20:36.261Z,45.00
2023-05-05T07:21:36.271Z,50.62
2023-05-05T07:22:36.276Z,50.62
2023-05-05T07:23:36.379Z,50.62
2023-05-05T07:24:36.380Z,50.62
2023-05-05T07:25:36.386Z,50.62
2023-05-05T07:26:36.401Z,50.62
2023-05-05T07:27:36.390Z,50.62
2023-05-05T07:28:36.441Z,56.25
2023-05-05T07:29:36.495Z,61.88
2023-05-05T07:30:36.537Z,67.50
2023-05-05T07:31:36.535Z,73.12
2023-05-05T07:32:36.563Z,78.75
2023-05-05T07:33:36.568Z,84.38
2023-05-05T07:34:36.539Z,95.62
2023-05-05T07:35:36.556Z,106.88
2023-05-05T07:36:36.589Z,118.12
2023-05-05T07:37:36.697Z,135.00
2023-05-05T07:38:36.646Z,146.25
2023-05-05T07:39:36.677Z,146.25
2023-05-05T07:40:36.659Z,140.62
2023-05-05T07:41:36.663Z,129.38
2023-05-05T07:42:36.720Z,129.38
2023-05-05T07:43:37.908Z,129.38
2023-05-05T07:44:36.801Z,135.00
2023-05-05T07:45:36.900Z,140.62
2023-05-05T07:46:36.894Z,129.38
2023-05-05T07:47:36.886Z,118.12
2023-05-05T07:48:36.953Z,106.88
2023-05-05T07:49:36.946Z,101.25
2023-05-05T07:50:36.945Z,101.25
2023-05-05T07:51:36.965Z,106.88
2023-05-05T07:52:44.986Z,118.12
2023-05-05T07:53:37.061Z,135.00
2023-05-05T07:54:37.083Z,157.50
2023-05-05T07:55:37.091Z,180.00
2023-05-05T07:56:37.131Z,191.25
2023-05-05T07:57:37.147Z,196.88
2023-05-05T07:58:37.196Z,196.88
2023-05-05T07:59:37.222Z,196.88
2023-05-05T08:00:37.258Z,196.88
2023-05-05T08:01:37.276Z,191.25
2023-05-05T08:02:37.355Z,185.62
2023-05-05T08:03:37.596Z,180.00
2023-05-05T08:04:37.409Z,180.00
2023-05-05T08:05:37.408Z,185.62
2023-05-05T08:06:37.456Z,191.25
2023-05-05T08:07:37.450Z,196.88
2023-05-05T08:08:37.472Z,202.50
2023-05-05T08:09:37.528Z,213.75
2023-05-05T08:10:37.567Z,225.00
2023-05-05T08:11:37.511Z,241.88
2023-05-05T08:12:37.606Z,258.75
2023-05-05T08:13:37.568Z,286.88
2023-05-05T08:14:37.692Z,315.00
2023-05-05T08:15:37.601Z,331.88
2023-05-05T08:16:37.670Z,326.25
2023-05-05T08:17:37.718Z,315.00
2023-05-05T08:18:37.753Z,298.12
2023-05-05T08:19:37.768Z,298.12
2023-05-05T08:20:37.770Z,303.75
2023-05-05T08:21:37.808Z,315.00
2023-05-05T08:22:37.807Z,331.88
2023-05-05T08:23:37.871Z,360.00
2023-05-05T08:24:37.892Z,399.38
2023-05-05T08:25:37.966Z,416.25
2023-05-05T08:26:37.990Z,461.25
2023-05-05T08:27:38.085Z,517.50
2023-05-05T08:28:38.035Z,590.62
2023-05-05T08:29:38.144Z,658.12
2023-05-05T08:30:38.225Z,579.38
2023-05-05T08:31:38.325Z,680.62
2023-05-05T08:32:38.322Z,950.62
2023-05-05T08:33:38.220Z,635.62
2023-05-05T08:34:38.236Z,658.12
2023-05-05T08:35:38.263Z,731.25
2023-05-05T08:36:38.277Z,691.88
2023-05-05T08:37:38.290Z,663.75
2023-05-05T08:38:38.331Z,658.12
2023-05-05T08:39:38.397Z,646.88
2023-05-05T08:40:38.464Z,646.88
2023-05-05T08:41:38.488Z,663.75
2023-05-05T08:42:39.604Z,680.62
2023-05-05T08:43:38.501Z,714.38
2023-05-05T08:44:38.579Z,804.38
2023-05-05T08:45:38.492Z,900.00
2023-05-05T08:46:38.635Z,1001.25
2023-05-05T08:47:38.600Z,990.00
2023-05-05T08:48:38.629Z,720.00
2023-05-05T08:49:38.719Z,658.12
2023-05-05T08:50:38.704Z,618.75
2023-05-05T08:51:38.735Z,596.25
2023-05-05T08:52:38.786Z,607.50
2023-05-05T08:53:38.814Z,1108.12
2023-05-05T08:54:38.894Z,725.62
2023-05-05T08:55:38.897Z,720.00
2023-05-05T08:56:39.071Z,742.50
2023-05-05T08:57:38.910Z,1063.12
2023-05-05T08:58:38.884Z,804.38
2023-05-05T08:59:38.879Z,804.38
2023-05-05T09:00:38.957Z,804.38
2023-05-05T09:01:38.993Z,765.00
2023-05-05T09:02:39.031Z,731.25
2023-05-05T09:03:39.010Z,731.25
2023-05-05T09:04:38.961Z,804.38
2023-05-05T09:05:39.039Z,1631.25
2023-05-05T09:06:39.102Z,950.62
2023-05-05T09:07:39.103Z,1361.25
2023-05-05T09:08:39.178Z,1805.62
2023-05-05T09:09:39.177Z,1867.50
2023-05-05T09:10:39.221Z,1912.50
2023-05-05T09:11:39.323Z,1895.62
2023-05-05T09:12:39.346Z,1878.75
2023-05-05T09:13:39.371Z,1861.88
2023-05-05T09:14:39.442Z,1895.62
2023-05-05T09:15:39.386Z,1805.62
2023-05-05T09:16:39.448Z,1698.75
2023-05-05T09:17:39.581Z,1704.38
2023-05-05T09:18:39.502Z,1642.50
2023-05-05T09:19:39.485Z,1620.00
2023-05-05T09:20:39.552Z,1248.75
2023-05-05T09:21:39.660Z,1546.88
2023-05-05T09:22:39.676Z,1687.50
2023-05-05T09:23:39.694Z,1620.00
2023-05-05T09:24:39.687Z,1777.50
2023-05-05T09:25:39.703Z,1355.62
2023-05-05T09:26:39.696Z,1816.88
2023-05-05T09:27:39.712Z,1766.25
2023-05-05T09:28:39.701Z,1237.50
2023-05-05T09:29:39.701Z,1552.50
2023-05-05T09:30:39.722Z,1085.62
2023-05-05T09:31:39.693Z,1001.25
2023-05-05T09:32:39.751Z,984.38
2023-05-05T09:33:39.767Z,945.00
2023-05-05T09:34:39.822Z,1046.25
2023-05-05T09:35:39.824Z,1141.88
2023-05-05T09:36:39.828Z,1276.88
2023-05-05T09:37:39.833Z,1006.88
2023-05-05T09:38:39.876Z,1096.88
2023-05-05T09:39:39.866Z,1023.75
2023-05-05T09:40:39.895Z,1164.38
2023-05-05T09:41:39.888Z,1181.25
2023-05-05T09:42:39.969Z,956.25
2023-05-05T09:43:39.982Z,1575.00
2023-05-05T09:44:40.002Z,1096.88
2023-05-05T09:45:40.046Z,1400.62
2023-05-05T09:46:40.166Z,1541.25
2023-05-05T09:47:40.170Z,1485.00
2023-05-05T09:48:40.191Z,1648.12
2023-05-05T09:49:40.193Z,1653.75
2023-05-05T09:50:40.204Z,1715.62
2023-05-05T09:51:40.198Z,1507.50
2023-05-05T09:52:40.273Z,1524.38
2023-05-05T09:53:40.270Z,1456.88
2023-05-05T09:54:40.285Z,1541.25
2023-05-05T09:55:40.302Z,1558.12
2023-05-05T09:56:40.316Z,1586.25
2023-05-05T09:57:40.300Z,1597.50
2023-05-05T09:58:40.318Z,1580.62
2023-05-05T09:59:40.323Z,1586.25
2023-05-05T10:00:40.419Z,1608.75
2023-05-05T10:01:40.448Z,1490.62
2023-05-05T10:02:40.444Z,1445.62
2023-05-05T10:03:40.436Z,1350.00
2023-05-05T10:04:40.460Z,1333.12
2023-05-05T10:05:40.454Z,1451.25
2023-05-05T10:06:40.428Z,939.38
2023-05-05T10:07:40.476Z,961.88
2023-05-05T10:08:40.486Z,871.88
2023-05-05T10:09:40.553Z,1181.25
2023-05-05T10:10:40.555Z,1423.12
2023-05-05T10:11:40.543Z,1518.75
2023-05-05T10:12:40.610Z,1355.62
2023-05-05T10:13:40.625Z,1445.62
2023-05-05T10:14:40.619Z,1541.25
2023-05-05T10:15:40.626Z,1501.88
2023-05-05T10:16:40.723Z,1473.75
2023-05-05T10:17:42.558Z,1400.62
2023-05-05T10:18:40.668Z,1344.38
2023-05-05T10:19:40.699Z,1271.25
2023-05-05T10:20:40.725Z,1316.25
2023-05-05T10:21:42.050Z,1327.50
2023-05-05T10:22:40.845Z,1406.25
2023-05-05T10:23:40.874Z,1423.12
2023-05-05T10:24:40.926Z,1372.50
2023-05-05T10:25:40.949Z,1361.25
2023-05-05T10:26:40.989Z,1305.00
2023-05-05T10:27:41.064Z,1282.50
2023-05-05T10:28:41.072Z,1299.38
2023-05-05T10:29:41.088Z,1276.88
2023-05-05T10:30:41.113Z,1170.00
2023-05-05T10:31:41.146Z,1113.75
2023-05-05T10:33:41.279Z,1119.38
2023-05-05T10:34:41.255Z,1113.75
2023-05-05T10:35:41.239Z,1147.50
2023-05-05T10:36:41.232Z,1074.38
2023-05-05T10:37:41.233Z,1091.25
2023-05-05T10:38:41.292Z,877.50
2023-05-05T10:39:41.296Z,911.25
2023-05-05T10:40:41.565Z,1096.88
2023-05-05T10:41:41.405Z,990.00
2023-05-05T10:42:41.492Z,1001.25
2023-05-05T10:43:41.476Z,860.62
2023-05-05T10:44:41.504Z,871.88
2023-05-05T10:45:41.637Z,1029.38
2023-05-05T10:46:41.696Z,1035.00
2023-05-05T10:47:41.712Z,967.50
2023-05-05T10:48:41.757Z,973.12
2023-05-05T10:49:41.701Z,883.12
2023-05-05T10:50:41.758Z,810.00
2023-05-05T10:51:41.794Z,956.25
2023-05-05T10:52:41.808Z,939.38
2023-05-05T10:53:41.865Z,939.38
2023-05-05T10:54:41.916Z,900.00
2023-05-05T10:55:42.041Z,871.88
2023-05-05T10:56:41.988Z,877.50
2023-05-05T10:57:42.019Z,810.00
2023-05-05T10:58:58.419Z,725.62
2023-05-05T10:59:42.111Z,697.50
2023-05-05T11:00:42.122Z,686.25
2023-05-05T11:01:42.172Z,697.50
2023-05-05T11:02:43.042Z,708.75
2023-05-05T11:03:42.376Z,686.25
2023-05-05T11:04:42.280Z,680.62
2023-05-05T11:05:42.367Z,703.12
2023-05-05T11:06:42.360Z,691.88
2023-05-05T11:07:42.407Z,725.62
2023-05-05T11:08:42.467Z,731.25
2023-05-05T11:09:42.523Z,770.62
2023-05-05T11:10:42.567Z,765.00
2023-05-05T11:11:42.720Z,804.38
2023-05-05T11:12:42.651Z,793.12
2023-05-05T11:13:42.733Z,860.62
2023-05-05T11:14:42.741Z,843.75
2023-05-05T11:15:42.800Z,691.88
2023-05-05T11:16:42.890Z,748.12
2023-05-05T11:17:42.943Z,697.50
2023-05-05T11:18:42.953Z,630.00
2023-05-05T11:19:43.038Z,585.00
2023-05-05T11:20:43.072Z,556.88
2023-05-05T11:21:43.045Z,596.25
2023-05-05T11:22:43.101Z,579.38
2023-05-05T11:23:43.148Z,551.25
2023-05-05T11:24:43.181Z,596.25
2023-05-05T11:25:43.228Z,708.75
2023-05-05T11:26:43.413Z,753.75
2023-05-05T11:27:43.339Z,759.38
2023-05-05T11:28:43.309Z,765.00
2023-05-05T11:29:43.347Z,748.12
2023-05-05T11:30:43.434Z,731.25
2023-05-05T11:31:43.461Z,736.88
2023-05-05T11:32:43.515Z,686.25
2023-05-05T11:33:43.549Z,720.00
2023-05-05T11:34:43.616Z,720.00
2023-05-05T11:35:43.662Z,658.12
2023-05-05T11:36:43.699Z,720.00
2023-05-05T11:37:43.823Z,765.00
2023-05-05T11:38:43.788Z,787.50
2023-05-05T11:39:43.828Z,759.38
2023-05-05T11:40:43.808Z,776.25
2023-05-05T11:41:43.894Z,613.12
2023-05-05T11:42:43.869Z,618.75
2023-05-05T11:43:43.923Z,793.12
2023-05-05T11:44:43.954Z,798.75
2023-05-05T11:45:44.000Z,787.50
2023-05-05T11:46:44.057Z,652.50
2023-05-05T11:47:44.088Z,748.12
2023-05-05T11:48:44.101Z,731.25
2023-05-05T11:49:44.142Z,736.88
2023-05-05T11:50:44.197Z,720.00
2023-05-05T11:51:44.278Z,686.25
2023-05-05T11:52:44.408Z,680.62
2023-05-05T11:53:44.322Z,691.88
2023-05-05T11:54:44.262Z,652.50
2023-05-05T11:55:44.331Z,675.00
2023-05-05T11:56:44.365Z,686.25
2023-05-05T11:57:45.037Z,635.62
2023-05-05T11:58:44.499Z,517.50
2023-05-05T11:59:44.412Z,506.25
2023-05-05T12:00:44.426Z,495.00
2023-05-05T12:01:44.358Z,495.00
2023-05-05T12:02:44.515Z,495.00
2023-05-05T12:03:44.514Z,495.00
2023-05-05T12:04:44.522Z,511.88
2023-05-05T12:05:44.508Z,489.38
2023-05-05T12:06:44.530Z,506.25
2023-05-05T12:07:44.548Z,489.38
2023-05-05T12:08:44.615Z,495.00
2023-05-05T12:09:44.591Z,579.38
2023-05-05T12:10:44.628Z,489.38
2023-05-05T12:11:44.682Z,478.12
2023-05-05T12:12:44.759Z,495.00
2023-05-05T12:13:44.800Z,596.25
2023-05-05T12:14:44.860Z,630.00
2023-05-05T12:15:44.903Z,618.75
2023-05-05T12:16:45.060Z,618.75
2023-05-05T12:17:45.231Z,562.50
2023-05-05T12:18:44.972Z,652.50
2023-05-05T12:19:45.072Z,618.75
2023-05-05T12:20:45.042Z,725.62
2023-05-05T12:21:45.069Z,585.00
2023-05-05T12:22:45.123Z,691.88
2023-05-05T12:23:45.171Z,697.50
2023-05-05T12:24:45.201Z,725.62
2023-05-05T12:25:45.149Z,753.75
2023-05-05T12:26:45.197Z,798.75
2023-05-05T12:27:45.241Z,804.38
2023-05-05T12:28:45.282Z,804.38
2023-05-05T12:29:45.284Z,776.25
2023-05-05T12:30:45.361Z,759.38
2023-05-05T12:31:45.455Z,742.50
2023-05-05T12:32:45.478Z,748.12
2023-05-05T12:33:45.383Z,630.00
2023-05-05T12:34:45.421Z,579.38
2023-05-05T12:35:45.468Z,630.00
2023-05-05T12:36:45.505Z,568.12
2023-05-05T12:37:45.579Z,675.00
2023-05-05T12:38:45.617Z,669.38
2023-05-05T12:39:45.671Z,568.12
2023-05-05T12:40:45.794Z,517.50
2023-05-05T12:41:45.704Z,540.00
2023-05-05T12:42:46.332Z,506.25
2023-05-05T12:43:45.804Z,523.12
2023-05-05T12:44:45.848Z,545.62
2023-05-05T12:45:45.939Z,579.38
2023-05-05T12:46:45.946Z,562.50
2023-05-05T12:47:46.042Z,500.62
2023-05-05T12:48:48.371Z,483.75
2023-05-05T12:49:56.927Z,495.00
2023-05-05T12:50:46.088Z,483.75
2023-05-05T12:51:46.052Z,478.12
2023-05-05T12:52:46.118Z,478.12
2023-05-05T12:53:46.201Z,489.38
2023-05-05T12:54:46.169Z,495.00
2023-05-05T12:55:46.220Z,495.00
2023-05-05T12:56:46.280Z,483.75
2023-05-05T12:57:46.329Z,483.75
2023-05-05T12:58:46.309Z,500.62
2023-05-05T12:59:46.394Z,511.88
2023-05-05T13:00:46.452Z,528.75
2023-05-05T13:01:46.524Z,556.88
2023-05-05T13:02:46.504Z,551.25
2023-05-05T13:03:46.517Z,551.25
2023-05-05T13:04:46.592Z,540.00
2023-05-05T13:05:46.867Z,523.12
2023-05-05T13:06:46.688Z,506.25
2023-05-05T13:07:46.678Z,483.75
2023-05-05T13:08:46.645Z,461.25
2023-05-05T13:09:46.698Z,450.00
2023-05-05T13:10:46.748Z,438.75
2023-05-05T13:11:46.792Z,433.12
2023-05-05T13:12:46.874Z,427.50